sensor_id;sensor_type;location;lat;lon;timestamp;temperature;humidity
6178;DHT22;3122;48.208;11.174;2024-03-08T00:04:03;1.00;1.00
6178;DHT22;3122;48.208;11.174;2024-03-08T00:09:04;1.00;1.00
6178;DHT22;3122;48.208;11.174;2024-03-08T00:14:04;1.00;1.00
6178;DHT22;3122;48.208;11.174;2024-03-08T00:19:07;1.00;1.00
6178;DHT22;3122;48.208;11.174;2024-03-08T00:24:07;1.00;1.00
6178;DHT22;3122;48.208;11.174;2024-03-08T00:29:08;1.00;1.00
6178;DHT22;3122;48.208;11.174;2024-03-08T00:34:08;1.00;1.00
6178;DHT22;3122;48.208;11.174;2024-03-08T00:39:11;0.90;1.00
6178;DHT22;3122;48.208;11.174;2024-03-08T00:44:12;0.80;1.00
6178;DHT22;3122;48.208;11.174;2024-03-08T00:49:13;0.80;1.00
6178;DHT22;3122;48.208;11.174;2024-03-08T00:54:13;0.70;1.00
6178;DHT22;3122;48.208;11.174;2024-03-08T00:59:14;0.70;1.00
6178;DHT22;3122;48.208;11.174;2024-03-08T01:04:14;0.70;1.00
6178;DHT22;3122;48.208;11.174;2024-03-08T01:09:15;0.70;1.00
6178;DHT22;3122;48.208;11.174;2024-03-08T01:14:17;0.70;1.00
6178;DHT22;3122;48.208;11.174;2024-03-08T01:19:18;0.70;1.00
6178;DHT22;3122;48.208;11.174;2024-03-08T01:24:19;0.60;1.00
6178;DHT22;3122;48.208;11.174;2024-03-08T01:29:20;0.60;1.00
6178;DHT22;3122;48.208;11.174;2024-03-08T01:34:20;0.60;1.00
6178;DHT22;3122;48.208;11.174;2024-03-08T01:39:21;0.50;1.00
6178;DHT22;3122;48.208;11.174;2024-03-08T01:44:22;0.50;1.00
6178;DHT22;3122;48.208;11.174;2024-03-08T01:49:24;0.50;1.00
6178;DHT22;3122;48.208;11.174;2024-03-08T01:54:26;0.40;1.00
6178;DHT22;3122;48.208;11.174;2024-03-08T01:59:27;0.30;1.00
6178;DHT22;3122;48.208;11.174;2024-03-08T02:04:29;0.40;1.00
6178;DHT22;3122;48.208;11.174;2024-03-08T02:09:31;0.40;1.00
6178;DHT22;3122;48.208;11.174;2024-03-08T02:14:31;0.40;1.00
6178;DHT22;3122;48.208;11.174;2024-03-08T02:19:32;0.30;1.00
6178;DHT22;3122;48.208;11.174;2024-03-08T02:24:33;0.20;1.00
6178;DHT22;3122;48.208;11.174;2024-03-08T02:29:34;0.20;1.00
6178;DHT22;3122;48.208;11.174;2024-03-08T02:34:35;0.30;1.00
6178;DHT22;3122;48.208;11.174;2024-03-08T02:39:35;0.30;1.00
6178;DHT22;3122;48.208;11.174;2024-03-08T02:44:36;0.20;1.00
6178;DHT22;3122;48.208;11.174;2024-03-08T02:49:37;0.30;1.00
6178;DHT22;3122;48.208;11.174;2024-03-08T02:54:38;0.20;1.00
6178;DHT22;3122;48.208;11.174;2024-03-08T02:59:38;0.20;1.00
6178;DHT22;3122;48.208;11.174;2024-03-08T03:04:40;0.10;1.00
6178;DHT22;3122;48.208;11.174;2024-03-08T03:09:41;0.20;1.00
6178;DHT22;3122;48.208;11.174;2024-03-08T03:14:41;0.10;1.00
6178;DHT22;3122;48.208;11.174;2024-03-08T03:19:42;0.00;1.00
6178;DHT22;3122;48.208;11.174;2024-03-08T03:24:43;0.00;1.00
6178;DHT22;3122;48.208;11.174;2024-03-08T03:29:44;0.10;1.00
6178;DHT22;3122;48.208;11.174;2024-03-08T03:34:47;0.00;1.00
6178;DHT22;3122;48.208;11.174;2024-03-08T03:39:48;0.10;1.00
6178;DHT22;3122;48.208;11.174;2024-03-08T03:44:53;0.00;1.00
6178;DHT22;3122;48.208;11.174;2024-03-08T03:49:54;0.10;1.00
6178;DHT22;3122;48.208;11.174;2024-03-08T03:54:54;0.00;1.00
6178;DHT22;3122;48.208;11.174;2024-03-08T03:59:55;-0.10;1.00
6178;DHT22;3122;48.208;11.174;2024-03-08T04:04:55;-0.10;1.00
6178;DHT22;3122;48.208;11.174;2024-03-08T04:09:56;-0.10;1.00
6178;DHT22;3122;48.208;11.174;2024-03-08T04:14:56;-0.10;1.00
6178;DHT22;3122;48.208;11.174;2024-03-08T04:19:57;-0.10;1.00
6178;DHT22;3122;48.208;11.174;2024-03-08T04:24:57;-0.10;1.00
6178;DHT22;3122;48.208;11.174;2024-03-08T04:29:58;-0.20;1.00
6178;DHT22;3122;48.208;11.174;2024-03-08T04:34:59;-0.20;1.00
6178;DHT22;3122;48.208;11.174;2024-03-08T04:40:02;-0.20;1.00
6178;DHT22;3122;48.208;11.174;2024-03-08T04:45:03;-0.20;1.00
6178;DHT22;3122;48.208;11.174;2024-03-08T04:50:05;-0.20;1.00
6178;DHT22;3122;48.208;11.174;2024-03-08T04:55:06;-0.20;1.00
6178;DHT22;3122;48.208;11.174;2024-03-08T05:00:07;-0.30;1.00
6178;DHT22;3122;48.208;11.174;2024-03-08T05:05:11;-0.30;1.00
6178;DHT22;3122;48.208;11.174;2024-03-08T05:10:13;-0.30;1.00
6178;DHT22;3122;48.208;11.174;2024-03-08T05:15:17;-0.30;1.00
6178;DHT22;3122;48.208;11.174;2024-03-08T05:20:18;-0.30;1.00
6178;DHT22;3122;48.208;11.174;2024-03-08T05:25:19;-0.20;1.00
6178;DHT22;3122;48.208;11.174;2024-03-08T05:30:20;-0.10;1.00
6178;DHT22;3122;48.208;11.174;2024-03-08T05:35:22;-0.10;1.00
6178;DHT22;3122;48.208;11.174;2024-03-08T05:40:22;0.00;1.00
6178;DHT22;3122;48.208;11.174;2024-03-08T05:45:23;-0.10;1.00
6178;DHT22;3122;48.208;11.174;2024-03-08T05:50:25;-0.10;1.00
6178;DHT22;3122;48.208;11.174;2024-03-08T05:55:25;0.00;1.00
6178;DHT22;3122;48.208;11.174;2024-03-08T06:00:27;-0.10;1.00
6178;DHT22;3122;48.208;11.174;2024-03-08T06:05:27;-0.10;1.00
6178;DHT22;3122;48.208;11.174;2024-03-08T06:10:28;0.10;1.00
6178;DHT22;3122;48.208;11.174;2024-03-08T06:15:28;0.00;1.00
6178;DHT22;3122;48.208;11.174;2024-03-08T06:20:29;0.00;1.00
6178;DHT22;3122;48.208;11.174;2024-03-08T06:25:29;0.10;1.00
6178;DHT22;3122;48.208;11.174;2024-03-08T06:30:30;0.10;1.00
6178;DHT22;3122;48.208;11.174;2024-03-08T06:35:31;0.20;1.00
6178;DHT22;3122;48.208;11.174;2024-03-08T06:40:32;0.20;1.00
6178;DHT22;3122;48.208;11.174;2024-03-08T06:45:33;0.20;1.00
6178;DHT22;3122;48.208;11.174;2024-03-08T06:50:33;0.30;1.00
6178;DHT22;3122;48.208;11.174;2024-03-08T06:55:36;0.20;1.00
6178;DHT22;3122;48.208;11.174;2024-03-08T07:00:37;0.40;1.00
6178;DHT22;3122;48.208;11.174;2024-03-08T07:05:38;0.40;1.00
6178;DHT22;3122;48.208;11.174;2024-03-08T07:10:40;0.40;1.00
6178;DHT22;3122;48.208;11.174;2024-03-08T07:15:43;0.60;1.00
6178;DHT22;3122;48.208;11.174;2024-03-08T07:20:43;0.70;1.00
6178;DHT22;3122;48.208;11.174;2024-03-08T07:25:44;0.70;1.00
6178;DHT22;3122;48.208;11.174;2024-03-08T07:30:44;0.90;1.00
6178;DHT22;3122;48.208;11.174;2024-03-08T07:35:45;0.80;1.00
6178;DHT22;3122;48.208;11.174;2024-03-08T07:40:47;0.70;1.00
6178;DHT22;3122;48.208;11.174;2024-03-08T07:45:48;0.90;1.00
6178;DHT22;3122;48.208;11.174;2024-03-08T07:50:48;0.80;1.00
6178;DHT22;3122;48.208;11.174;2024-03-08T07:55:50;0.80;1.00
6178;DHT22;3122;48.208;11.174;2024-03-08T08:00:50;0.90;1.00
6178;DHT22;3122;48.208;11.174;2024-03-08T08:05:51;1.10;1.00
6178;DHT22;3122;48.208;11.174;2024-03-08T08:10:51;1.20;1.00
6178;DHT22;3122;48.208;11.174;2024-03-08T08:15:52;1.30;1.00
6178;DHT22;3122;48.208;11.174;2024-03-08T08:20:52;1.40;1.00
6178;DHT22;3122;48.208;11.174;2024-03-08T08:25:53;1.40;1.00
6178;DHT22;3122;48.208;11.174;2024-03-08T08:30:53;1.40;1.00
6178;DHT22;3122;48.208;11.174;2024-03-08T08:35:54;1.60;1.00
6178;DHT22;3122;48.208;11.174;2024-03-08T08:40:55;1.70;1.00
6178;DHT22;3122;48.208;11.174;2024-03-08T08:45:56;1.80;1.00
6178;DHT22;3122;48.208;11.174;2024-03-08T08:50:56;2.00;1.00
6178;DHT22;3122;48.208;11.174;2024-03-08T08:55:57;2.10;1.00
6178;DHT22;3122;48.208;11.174;2024-03-08T09:00:58;2.20;1.00
6178;DHT22;3122;48.208;11.174;2024-03-08T09:05:59;1.90;1.00
6178;DHT22;3122;48.208;11.174;2024-03-08T09:11:00;2.10;1.00
6178;DHT22;3122;48.208;11.174;2024-03-08T09:16:02;2.30;1.00
6178;DHT22;3122;48.208;11.174;2024-03-08T09:21:03;2.60;1.00
6178;DHT22;3122;48.208;11.174;2024-03-08T09:26:05;2.80;1.00
6178;DHT22;3122;48.208;11.174;2024-03-08T09:31:09;2.80;1.00
6178;DHT22;3122;48.208;11.174;2024-03-08T09:36:11;2.90;1.00
6178;DHT22;3122;48.208;11.174;2024-03-08T09:41:13;3.30;1.00
6178;DHT22;3122;48.208;11.174;2024-03-08T09:46:14;3.50;1.00
6178;DHT22;3122;48.208;11.174;2024-03-08T09:51:16;3.50;1.00
6178;DHT22;3122;48.208;11.174;2024-03-08T09:56:17;3.70;1.00
6178;DHT22;3122;48.208;11.174;2024-03-08T10:01:18;3.80;1.00
6178;DHT22;3122;48.208;11.174;2024-03-08T10:06:23;4.10;1.00
6178;DHT22;3122;48.208;11.174;2024-03-08T10:11:26;4.10;1.00
6178;DHT22;3122;48.208;11.174;2024-03-08T10:16:27;4.30;1.00
6178;DHT22;3122;48.208;11.174;2024-03-08T10:21:29;4.50;1.00
6178;DHT22;3122;48.208;11.174;2024-03-08T10:26:30;4.50;1.00
6178;DHT22;3122;48.208;11.174;2024-03-08T10:31:33;4.70;1.00
6178;DHT22;3122;48.208;11.174;2024-03-08T10:36:35;4.60;1.00
6178;DHT22;3122;48.208;11.174;2024-03-08T10:41:39;4.80;1.00
6178;DHT22;3122;48.208;11.174;2024-03-08T10:52:06;5.00;1.00
6178;DHT22;3122;48.208;11.174;2024-03-08T10:57:09;5.10;1.00
6178;DHT22;3122;48.208;11.174;2024-03-08T11:02:12;5.20;1.00
6178;DHT22;3122;48.208;11.174;2024-03-08T11:07:12;5.20;1.00
6178;DHT22;3122;48.208;11.174;2024-03-08T11:17:45;5.40;1.00
6178;DHT22;3122;48.208;11.174;2024-03-08T11:22:55;5.60;1.00
6178;DHT22;3122;48.208;11.174;2024-03-08T11:28:15;5.60;1.00
6178;DHT22;3122;48.208;11.174;2024-03-08T11:33:19;5.60;1.00
6178;DHT22;3122;48.208;11.174;2024-03-08T11:38:19;5.80;1.00
6178;DHT22;3122;48.208;11.174;2024-03-08T11:43:20;6.00;1.00
6178;DHT22;3122;48.208;11.174;2024-03-08T11:48:21;6.00;1.00
6178;DHT22;3122;48.208;11.174;2024-03-08T11:53:21;6.10;1.00
6178;DHT22;3122;48.208;11.174;2024-03-08T11:58:22;6.20;1.00
6178;DHT22;3122;48.208;11.174;2024-03-08T12:03:22;6.70;1.00
6178;DHT22;3122;48.208;11.174;2024-03-08T12:08:23;6.40;1.00
6178;DHT22;3122;48.208;11.174;2024-03-08T12:13:23;6.50;1.00
6178;DHT22;3122;48.208;11.174;2024-03-08T12:18:28;6.60;1.00
6178;DHT22;3122;48.208;11.174;2024-03-08T12:23:28;6.70;1.00
6178;DHT22;3122;48.208;11.174;2024-03-08T12:28:29;6.80;1.00
6178;DHT22;3122;48.208;11.174;2024-03-08T12:33:29;6.80;1.00
6178;DHT22;3122;48.208;11.174;2024-03-08T12:38:31;6.90;1.00
6178;DHT22;3122;48.208;11.174;2024-03-08T12:43:32;7.00;1.00
6178;DHT22;3122;48.208;11.174;2024-03-08T12:48:37;7.00;1.00
6178;DHT22;3122;48.208;11.174;2024-03-08T12:53:41;7.00;1.00
6178;DHT22;3122;48.208;11.174;2024-03-08T12:58:44;7.10;1.00
6178;DHT22;3122;48.208;11.174;2024-03-08T13:03:45;7.20;1.00
6178;DHT22;3122;48.208;11.174;2024-03-08T13:08:46;7.20;1.00
6178;DHT22;3122;48.208;11.174;2024-03-08T13:13:48;7.20;1.00
6178;DHT22;3122;48.208;11.174;2024-03-08T13:18:48;7.30;1.00
6178;DHT22;3122;48.208;11.174;2024-03-08T13:23:49;7.40;1.00
6178;DHT22;3122;48.208;11.174;2024-03-08T13:28:49;7.40;1.00
6178;DHT22;3122;48.208;11.174;2024-03-08T13:33:53;7.50;1.00
6178;DHT22;3122;48.208;11.174;2024-03-08T13:38:58;7.50;1.00
6178;DHT22;3122;48.208;11.174;2024-03-08T13:43:59;7.60;1.00
6178;DHT22;3122;48.208;11.174;2024-03-08T13:49:05;7.50;1.00
6178;DHT22;3122;48.208;11.174;2024-03-08T13:54:06;7.60;1.00
6178;DHT22;3122;48.208;11.174;2024-03-08T13:59:07;7.70;1.00
6178;DHT22;3122;48.208;11.174;2024-03-08T14:04:09;7.70;1.00
6178;DHT22;3122;48.208;11.174;2024-03-08T14:09:13;7.70;1.00
6178;DHT22;3122;48.208;11.174;2024-03-08T14:14:17;7.70;1.00
6178;DHT22;3122;48.208;11.174;2024-03-08T14:19:19;7.70;1.00
6178;DHT22;3122;48.208;11.174;2024-03-08T14:24:20;7.70;1.00
6178;DHT22;3122;48.208;11.174;2024-03-08T14:29:20;7.80;1.00
6178;DHT22;3122;48.208;11.174;2024-03-08T14:34:21;7.80;1.00
6178;DHT22;3122;48.208;11.174;2024-03-08T14:39:22;7.80;1.00
6178;DHT22;3122;48.208;11.174;2024-03-08T14:44:26;7.70;1.00
6178;DHT22;3122;48.208;11.174;2024-03-08T14:49:27;7.70;1.00
6178;DHT22;3122;48.208;11.174;2024-03-08T14:54:29;7.60;1.00
6178;DHT22;3122;48.208;11.174;2024-03-08T14:59:30;7.60;1.00
6178;DHT22;3122;48.208;11.174;2024-03-08T15:04:31;7.60;1.00
6178;DHT22;3122;48.208;11.174;2024-03-08T15:09:31;7.60;1.00
6178;DHT22;3122;48.208;11.174;2024-03-08T15:14:40;7.50;1.00
6178;DHT22;3122;48.208;11.174;2024-03-08T15:19:40;7.60;1.00
6178;DHT22;3122;48.208;11.174;2024-03-08T15:24:41;7.50;1.00
6178;DHT22;3122;48.208;11.174;2024-03-08T15:29:43;7.50;1.00
6178;DHT22;3122;48.208;11.174;2024-03-08T15:34:48;7.40;1.00
6178;DHT22;3122;48.208;11.174;2024-03-08T15:39:48;7.40;1.00
6178;DHT22;3122;48.208;11.174;2024-03-08T15:44:49;7.40;1.00
6178;DHT22;3122;48.208;11.174;2024-03-08T15:49:49;7.30;1.00
6178;DHT22;3122;48.208;11.174;2024-03-08T15:54:51;7.20;1.00
6178;DHT22;3122;48.208;11.174;2024-03-08T15:59:52;7.10;1.00
6178;DHT22;3122;48.208;11.174;2024-03-08T16:04:55;7.00;1.00
6178;DHT22;3122;48.208;11.174;2024-03-08T16:09:56;7.00;1.00
6178;DHT22;3122;48.208;11.174;2024-03-08T16:14:57;7.00;1.00
6178;DHT22;3122;48.208;11.174;2024-03-08T16:19:57;6.90;1.00
6178;DHT22;3122;48.208;11.174;2024-03-08T16:24:59;6.80;1.00
6178;DHT22;3122;48.208;11.174;2024-03-08T16:30:00;6.80;1.00
6178;DHT22;3122;48.208;11.174;2024-03-08T16:35:00;6.60;1.00
6178;DHT22;3122;48.208;11.174;2024-03-08T16:40:01;6.50;1.00
6178;DHT22;3122;48.208;11.174;2024-03-08T16:45:01;6.50;1.00
6178;DHT22;3122;48.208;11.174;2024-03-08T16:50:02;6.40;1.00
6178;DHT22;3122;48.208;11.174;2024-03-08T16:55:07;6.40;1.00
6178;DHT22;3122;48.208;11.174;2024-03-08T17:00:21;6.30;1.00
6178;DHT22;3122;48.208;11.174;2024-03-08T17:05:23;6.20;1.00
6178;DHT22;3122;48.208;11.174;2024-03-08T17:10:28;6.10;1.00
6178;DHT22;3122;48.208;11.174;2024-03-08T17:15:30;6.00;1.00
6178;DHT22;3122;48.208;11.174;2024-03-08T17:20:33;5.90;1.00
6178;DHT22;3122;48.208;11.174;2024-03-08T17:25:36;5.80;1.00
6178;DHT22;3122;48.208;11.174;2024-03-08T17:30:38;5.70;1.00
6178;DHT22;3122;48.208;11.174;2024-03-08T17:35:41;5.70;1.00
6178;DHT22;3122;48.208;11.174;2024-03-08T17:40:42;5.50;1.00
6178;DHT22;3122;48.208;11.174;2024-03-08T17:45:43;5.50;1.00
6178;DHT22;3122;48.208;11.174;2024-03-08T17:50:47;5.30;1.00
6178;DHT22;3122;48.208;11.174;2024-03-08T17:55:50;5.40;1.00
6178;DHT22;3122;48.208;11.174;2024-03-08T18:00:52;5.30;1.00
6178;DHT22;3122;48.208;11.174;2024-03-08T18:05:54;5.20;1.00
6178;DHT22;3122;48.208;11.174;2024-03-08T18:10:55;5.20;1.00
6178;DHT22;3122;48.208;11.174;2024-03-08T18:15:55;5.20;1.00
6178;DHT22;3122;48.208;11.174;2024-03-08T18:20:56;5.20;1.00
6178;DHT22;3122;48.208;11.174;2024-03-08T18:25:57;5.10;1.00
6178;DHT22;3122;48.208;11.174;2024-03-08T18:30:57;4.90;1.00
6178;DHT22;3122;48.208;11.174;2024-03-08T18:35:58;4.80;1.00
6178;DHT22;3122;48.208;11.174;2024-03-08T18:40:59;4.80;1.00
6178;DHT22;3122;48.208;11.174;2024-03-08T18:46:01;4.80;1.00
6178;DHT22;3122;48.208;11.174;2024-03-08T18:51:01;4.80;1.00
6178;DHT22;3122;48.208;11.174;2024-03-08T18:56:02;4.80;1.00
6178;DHT22;3122;48.208;11.174;2024-03-08T19:01:03;4.70;1.00
6178;DHT22;3122;48.208;11.174;2024-03-08T19:06:05;4.60;1.00
6178;DHT22;3122;48.208;11.174;2024-03-08T19:11:07;4.60;1.00
6178;DHT22;3122;48.208;11.174;2024-03-08T19:16:07;4.50;1.00
6178;DHT22;3122;48.208;11.174;2024-03-08T19:21:14;4.40;1.00
6178;DHT22;3122;48.208;11.174;2024-03-08T19:26:16;4.40;1.00
6178;DHT22;3122;48.208;11.174;2024-03-08T19:31:22;4.20;1.00
6178;DHT22;3122;48.208;11.174;2024-03-08T19:36:23;4.20;1.00
6178;DHT22;3122;48.208;11.174;2024-03-08T19:41:23;4.20;1.00
6178;DHT22;3122;48.208;11.174;2024-03-08T19:46:24;4.10;1.00
6178;DHT22;3122;48.208;11.174;2024-03-08T19:51:24;3.90;1.00
6178;DHT22;3122;48.208;11.174;2024-03-08T19:56:25;4.00;1.00
6178;DHT22;3122;48.208;11.174;2024-03-08T20:01:26;3.80;1.00
6178;DHT22;3122;48.208;11.174;2024-03-08T20:06:26;3.90;1.00
6178;DHT22;3122;48.208;11.174;2024-03-08T20:11:27;3.70;1.00
6178;DHT22;3122;48.208;11.174;2024-03-08T20:16:27;3.70;1.00
6178;DHT22;3122;48.208;11.174;2024-03-08T20:21:28;3.70;1.00
6178;DHT22;3122;48.208;11.174;2024-03-08T20:26:29;3.70;1.00
6178;DHT22;3122;48.208;11.174;2024-03-08T20:31:29;3.60;1.00
6178;DHT22;3122;48.208;11.174;2024-03-08T20:36:32;3.60;1.00
6178;DHT22;3122;48.208;11.174;2024-03-08T20:41:32;3.50;1.00
6178;DHT22;3122;48.208;11.174;2024-03-08T20:46:33;3.50;1.00
6178;DHT22;3122;48.208;11.174;2024-03-08T20:51:34;3.40;1.00
6178;DHT22;3122;48.208;11.174;2024-03-08T20:56:35;3.30;1.00
6178;DHT22;3122;48.208;11.174;2024-03-08T21:01:36;3.30;1.00
6178;DHT22;3122;48.208;11.174;2024-03-08T21:06:37;3.20;1.00
6178;DHT22;3122;48.208;11.174;2024-03-08T21:11:38;3.20;1.00
6178;DHT22;3122;48.208;11.174;2024-03-08T21:16:40;3.10;1.00
6178;DHT22;3122;48.208;11.174;2024-03-08T21:21:42;3.00;1.00
6178;DHT22;3122;48.208;11.174;2024-03-08T21:26:42;3.00;1.00
6178;DHT22;3122;48.208;11.174;2024-03-08T21:31:43;3.00;1.00
6178;DHT22;3122;48.208;11.174;2024-03-08T21:36:43;2.80;1.00
6178;DHT22;3122;48.208;11.174;2024-03-08T21:41:45;2.70;1.00
6178;DHT22;3122;48.208;11.174;2024-03-08T21:46:46;2.60;1.00
6178;DHT22;3122;48.208;11.174;2024-03-08T21:51:48;2.70;1.00
6178;DHT22;3122;48.208;11.174;2024-03-08T21:56:51;2.60;1.00
6178;DHT22;3122;48.208;11.174;2024-03-08T22:01:52;2.60;1.00
6178;DHT22;3122;48.208;11.174;2024-03-08T22:06:53;2.50;1.00
6178;DHT22;3122;48.208;11.174;2024-03-08T22:11:56;2.40;1.00
6178;DHT22;3122;48.208;11.174;2024-03-08T22:16:57;2.20;1.00
6178;DHT22;3122;48.208;11.174;2024-03-08T22:21:58;2.20;1.00
6178;DHT22;3122;48.208;11.174;2024-03-08T22:27:00;2.20;1.00
6178;DHT22;3122;48.208;11.174;2024-03-08T22:32:01;2.30;1.00
6178;DHT22;3122;48.208;11.174;2024-03-08T22:37:01;2.20;1.00
6178;DHT22;3122;48.208;11.174;2024-03-08T22:42:05;2.10;1.00
6178;DHT22;3122;48.208;11.174;2024-03-08T22:47:06;2.20;1.00
6178;DHT22;3122;48.208;11.174;2024-03-08T22:52:07;2.20;1.00
6178;DHT22;3122;48.208;11.174;2024-03-08T22:57:08;2.10;1.00
6178;DHT22;3122;48.208;11.174;2024-03-08T23:02:09;2.00;1.00
6178;DHT22;3122;48.208;11.174;2024-03-08T23:07:10;1.90;1.00
6178;DHT22;3122;48.208;11.174;2024-03-08T23:12:11;2.00;1.00
6178;DHT22;3122;48.208;11.174;2024-03-08T23:17:11;1.90;1.00
6178;DHT22;3122;48.208;11.174;2024-03-08T23:22:14;2.00;1.00
6178;DHT22;3122;48.208;11.174;2024-03-08T23:27:14;1.90;1.00
6178;DHT22;3122;48.208;11.174;2024-03-08T23:32:15;1.90;1.00
6178;DHT22;3122;48.208;11.174;2024-03-08T23:37:16;2.00;1.00
6178;DHT22;3122;48.208;11.174;2024-03-08T23:42:17;1.90;1.00
6178;DHT22;3122;48.208;11.174;2024-03-08T23:47:17;1.90;1.00
6178;DHT22;3122;48.208;11.174;2024-03-08T23:52:19;1.90;1.00
6178;DHT22;3122;48.208;11.174;2024-03-08T23:57:19;1.80;1.00
